Estació municipal de St. Julià de Vilatorta (Osona, E.N.Guilleries-Savassona)

Consulta les dades en temps real de l'estació municipal de St. Julià de Vilatorta





Hora UTC 19:10
Temperatura 22.9 ºC
Subsòl 10 cm 20.9 ºC
Humitat 67.5 %
Pressió 1019.2 hPa
Pluja 0.0 mm
Velocitat vent 5.1 km/h
Direcció vent NNW
Radiació solar 0.0 W/m²
Fuel 5.9 %

Webcam

Dades diàries 2026-08-31



Hora UTC (hivern +1h; estiu +2h)
Temperatura (ºC) Humitat (%) Pressió (hPa) Velocitat vent (km/h) Precipitació (mm) Fuel (%) Radiació solar (W/m²)
Hora UTC Aire Subsòl 10 cm Humitat Pressió Vel. Dir. Vel. Max Dir. Intent. màx 5 min. Fuel Rad. Sol.
00:05 16.3 12.7 66.0 1017.9 2.6 E 2.6 E 0.0 5.6 0.5
00:10 16.3 12.5 66.4 1017.9 2.8 ESE 5.4 ESE 0.0 5.6 0.7
00:15 16.2 12.4 67.4 1017.8 1.6 SSE 3.4 SE 0.0 5.7 0.5
00:20 16.0 12.4 68.4 1017.8 2.8 SE 4.6 SE 0.0 5.7 0.5
00:25 15.8 12.4 68.7 1017.8 1.8 E 3.2 ESE 0.0 5.7 0.2
00:30 15.9 12.3 68.2 1017.9 1.1 SSW 3.1 ESE 0.0 5.7 0.9
00:35 15.9 12.1 68.4 1017.8 2.1 ESE 3.1 ESE 0.0 5.7 0.5
00:40 15.9 12.1 68.8 1017.8 1.6 SSE 3.1 ESE 0.0 5.8 0.4
00:45 15.7 12.0 69.8 1017.8 1.8 SE 3.0 ESE 0.0 5.8 0.9
00:50 15.5 11.9 70.4 1017.8 1.2 SSE 2.1 SE 0.0 5.8 0.7
00:55 15.4 11.8 71.4 1017.8 1.1 SE 2.3 SSE 0.0 5.8 0.7
01:00 15.2 11.7 72.0 1017.9 1.2 ESE 2.0 SE 0.0 5.9 0.8
01:05 15.1 11.5 72.6 1017.9 1.8 SE 3.1 SE 0.0 5.7 1.0
01:10 15.1 11.4 72.7 1017.9 3.0 SE 4.1 SE 0.0 5.9 0.8
01:15 15.0 11.4 73.2 1017.9 1.9 ESE 3.0 ESE 0.0 6.0 0.8
01:20 15.1 11.4 72.7 1017.9 2.9 SE 3.8 SSE 0.0 5.9 1.0
01:25 15.2 11.4 72.2 1017.9 3.4 SE 5.4 SE 0.0 6.0 0.6
01:30 15.5 11.3 70.7 1017.9 2.5 SE 5.1 SE 0.0 6.0 0.6
01:35 15.5 11.3 70.7 1017.9 1.9 ESE 2.7 ESE 0.0 6.0 0.5
01:40 15.6 11.3 70.5 1017.9 3.1 SE 5.9 SSE 0.0 6.1 0.8
01:45 15.8 11.2 70.3 1017.9 3.1 SE 5.8 SSE 0.0 6.1 0.8
01:50 15.9 11.3 70.4 1017.9 2.8 SE 4.6 SE 0.0 6.1 0.7
01:55 15.8 11.3 71.2 1017.9 3.2 ESE 4.8 SE 0.0 6.1 0.7
02:00 15.6 11.4 71.9 1017.9 3.5 E 5.7 E 0.0 6.2 0.4
02:05 15.4 11.5 73.2 1017.9 3.4 ESE 6.3 E 0.0 6.2 0.3
02:10 15.4 11.5 73.5 1017.8 1.1 SE 2.4 ESE 0.0 6.2 0.6
02:15 15.3 11.5 73.7 1017.8 3.3 ENE 5.9 ENE 0.0 6.2 0.7
02:20 15.2 11.6 74.5 1017.8 2.0 E 3.6 E 0.0 6.3 0.2
02:25 15.2 11.6 74.6 1017.8 3.5 ESE 4.6 E 0.0 6.3 0.4
02:30 15.2 11.6 74.9 1017.8 1.8 SSE 4.8 WNW 0.0 6.3 0.2
02:35 15.1 11.6 75.0 1017.9 2.3 W 6.0 WNW 0.0 6.3 0.1
02:40 14.9 11.5 75.6 1018.0 2.0 SW 3.0 W 0.0 6.3 0.1
02:45 14.8 11.4 76.4 1018.0 2.1 SSE 3.9 SSE 0.0 6.4 0.2
02:50 14.7 11.3 76.7 1018.0 2.5 SE 3.7 SE 0.0 6.4 0.4
02:55 14.7 11.2 76.8 1018.0 2.3 SSE 3.5 SE 0.0 6.4 0.2
03:00 14.7 11.0 76.5 1018.0 1.6 SSE 3.3 SSE 0.0 6.5 0.1
03:05 14.6 10.8 77.0 1017.9 1.7 SE 2.7 SE 0.0 6.5 0.1
03:10 14.6 10.6 77.3 1017.9 1.5 SE 4.0 ESE 0.0 6.5 0.6
03:15 14.5 10.5 77.8 1017.9 1.8 SE 3.0 SE 0.0 6.6 0.4
03:20 14.3 10.4 78.7 1017.9 1.1 SSE 2.0 S 0.0 6.6 0.6
03:25 14.1 10.3 79.8 1017.9 2.0 SSE 3.7 SSE 0.0 6.6 0.4
03:30 13.9 10.4 80.9 1018.0 1.9 SE 3.5 SSE 0.0 6.7 0.6
03:35 14.0 10.3 81.2 1018.0 2.1 SE 3.6 SE 0.0 6.7 0.7
03:40 14.0 10.2 81.4 1018.0 2.0 ESE 4.0 E 0.0 6.8 0.6
03:45 14.1 10.1 81.3 1018.0 3.2 E 4.2 E 0.0 6.8 0.4
03:50 14.1 10.1 81.4 1018.0 2.7 ESE 4.4 ESE 0.0 6.8 0.7
03:55 14.1 10.0 80.9 1018.0 1.9 SE 2.8 SE 0.0 6.9 0.6
04:00 13.9 10.1 81.5 1018.0 1.7 ESE 3.1 SE 0.0 6.9 0.6
04:05 14.0 10.0 82.1 1018.0 2.2 ESE 4.7 E 0.0 7.0 0.9
04:10 14.1 10.1 81.6 1018.0 2.5 ESE 4.6 E 0.0 7.0 0.9
04:15 14.1 10.1 81.2 1018.0 2.1 ESE 3.2 ESE 0.0 7.0 0.4
04:20 14.0 10.1 81.5 1018.0 2.6 ESE 4.4 E 0.0 7.1 0.6
04:25 14.1 10.0 81.5 1018.0 2.1 SE 4.0 SE 0.0 7.1 0.5
04:30 14.1 10.0 81.3 1018.0 3.4 E 5.1 ESE 0.0 7.2 0.5
04:35 14.0 10.1 81.9 1018.0 2.3 SE 3.8 ESE 0.0 7.2 0.6
04:40 14.1 10.0 81.6 1018.0 2.4 ESE 3.6 ESE 0.0 7.2 0.5
04:45 14.1 10.0 81.5 1018.0 2.5 ESE 4.9 ESE 0.0 7.3 0.7
04:50 14.0 10.0 81.7 1018.0 2.6 SE 4.9 ESE 0.0 7.3 0.5
04:55 13.9 10.1 82.6 1018.0 3.1 ESE 5.3 E 0.0 7.4 0.6
05:00 13.9 10.2 82.4 1018.0 4.0 SE 6.2 SSE 0.0 7.4 0.7
05:05 13.8 10.5 82.8 1018.1 2.8 ESE 5.6 SE 0.0 7.5 0.8
05:10 13.9 10.5 82.7 1018.1 2.1 ESE 6.0 SE 0.0 7.5 1.4
05:15 13.9 10.5 82.7 1018.1 1.9 SE 3.3 SSE 0.0 7.5 2.5
05:20 13.9 10.4 83.0 1018.2 1.8 SE 2.9 SE 0.0 7.5 4.4
05:25 14.0 10.3 82.8 1018.3 2.1 SE 2.8 SE 0.0 7.6 6.8
05:30 14.0 10.2 82.6 1018.3 1.6 SE 2.7 SE 0.0 7.6 9.4
05:35 13.9 10.2 83.1 1018.4 2.0 ESE 2.8 ESE 0.0 7.6 12.2
05:40 13.9 10.3 83.1 1018.4 1.8 SE 3.0 E 0.0 7.7 14.6
05:45 14.0 10.3 83.1 1018.4 1.8 SE 3.0 SE 0.0 7.7 17.7
05:50 14.0 10.4 83.1 1018.4 2.0 SE 3.7 SE 0.0 7.7 20.5
05:55 14.2 10.6 82.6 1018.5 1.9 SE 3.6 SSE 0.0 7.8 23.3
06:00 14.2 10.8 82.7 1018.5 1.6 SE 2.6 SE 0.0 7.9 25.4
06:05 14.2 11.0 83.1 1018.5 0.9 SE 2.3 SE 0.0 7.9 27.4
06:10 14.1 11.2 83.8 1018.5 0.6 ESE 1.4 SE 0.0 7.8 30.0
06:15 14.2 11.3 84.0 1018.6 1.2 E 2.9 NE 0.0 7.9 32.2
06:20 14.3 11.5 83.7 1018.6 1.0 SSE 1.9 ENE 0.0 8.0 34.5
06:25 14.3 11.7 83.4 1018.7 0.7 SSE 1.3 SSE 0.0 7.9 36.6
06:30 14.4 11.8 83.4 1018.8 0.8 NE 1.6 NNE 0.0 8.0 39.1
06:35 14.9 12.0 81.5 1018.8 0.6 NE 1.4 NE 0.0 8.0 139.9
06:40 15.2 12.2 79.4 1018.8 0.6 ESE 1.8 SSE 0.0 8.0 193.8
06:45 15.4 12.5 78.8 1018.8 2.1 SSE 3.1 SSE 0.0 8.0 208.6
06:50 15.9 12.8 77.1 1018.9 1.7 SSE 2.6 SSE 0.0 8.0 223.8
06:55 16.9 13.5 73.5 1018.9 1.3 S 2.4 SSW 0.0 8.0 238.9
07:00 18.3 14.5 67.3 1018.9 1.8 SSW 3.6 SSW 0.0 8.0 254.5
07:05 19.5 15.2 62.5 1018.9 1.8 SSW 2.3 SSW 0.0 8.0 270.2
07:10 20.6 16.0 58.7 1018.9 0.9 SE 2.6 S 0.0 7.9 284.9
07:15 20.8 17.2 58.0 1019.0 0.8 ENE 2.2 WNW 0.0 7.9 300.2
07:20 21.0 18.0 57.6 1019.0 2.0 W 4.3 WNW 0.0 7.9 315.1
07:25 21.2 18.9 57.7 1019.0 1.1 ESE 2.1 SE 0.0 7.8 330.8
07:30 21.3 20.0 57.3 1019.0 2.1 NNW 5.2 NW 0.0 7.8 346.4
07:35 20.0 21.1 60.7 1019.0 3.6 N 5.3 N 0.0 7.7 362.6
07:40 19.7 21.8 62.3 1019.0 1.9 N 3.8 NW 0.0 7.7 378.0
07:45 20.2 22.2 61.0 1019.0 4.0 NW 6.8 WNW 0.0 7.7 394.6
07:50 19.9 22.3 62.0 1019.0 3.5 WNW 6.1 WNW 0.0 7.6 412.5
07:55 19.9 22.2 62.0 1019.1 3.7 WNW 6.7 NW 0.0 7.6 427.6
08:00 20.0 22.2 62.0 1019.1 3.6 W 6.7 WNW 0.0 7.6 443.7
08:05 20.4 22.4 61.0 1019.2 3.4 NW 6.0 WNW 0.0 7.5 459.2
08:10 20.4 22.6 60.1 1019.2 4.4 N 6.9 NNW 0.0 7.5 473.4
08:15 20.3 22.9 60.0 1019.3 2.5 N 5.1 N 0.0 7.4 487.1
08:20 20.9 23.3 58.7 1019.3 2.0 NNW 4.8 NNW 0.0 7.4 499.3
08:25 21.3 23.8 57.3 1019.4 1.7 NNW 5.0 NW 0.0 7.4 513.4
08:30 22.3 24.6 55.8 1019.4 1.6 WNW 4.1 ENE 0.0 7.3 528.2
08:35 22.8 25.5 55.0 1019.4 1.8 W 5.1 NNW 0.0 7.3 543.6
08:40 23.3 26.3 54.1 1019.5 2.2 SSW 3.9 SSW 0.0 7.3 557.6
08:45 23.9 27.1 52.7 1019.5 2.0 NW 4.3 ESE 0.0 7.2 571.4
08:50 23.4 27.7 52.0 1019.5 3.1 NNE 5.8 N 0.0 7.2 584.9
08:55 23.2 28.4 53.3 1019.6 3.3 N 8.0 N 0.0 7.1 598.1
09:00 23.3 28.6 53.0 1019.6 3.6 WNW 6.7 WNW 0.0 7.1 612.9
09:05 23.8 29.0 50.0 1019.6 3.8 W 6.7 WSW 0.0 7.0 625.9
09:10 24.0 29.1 48.9 1019.6 3.5 WSW 6.3 W 0.0 7.0 638.2
09:15 24.3 29.2 48.4 1019.7 3.3 W 6.4 W 0.0 6.9 650.9
09:20 24.5 29.5 48.3 1019.7 3.2 NW 6.8 WNW 0.0 6.9 663.4
09:25 24.6 29.7 48.0 1019.7 4.1 NW 7.1 NNW 0.0 6.8 675.6
09:30 24.3 29.9 48.0 1019.7 3.3 N 6.2 N 0.0 6.7 685.2
09:35 24.5 30.3 47.2 1019.7 3.4 NNE 6.0 NNE 0.0 6.7 694.3
09:40 24.9 30.7 46.7 1019.7 2.5 NNE 3.9 N 0.0 6.7 703.5
09:45 25.2 30.9 45.2 1019.7 2.6 N 5.9 WNW 0.0 6.6 713.2
09:50 25.3 31.1 44.5 1019.6 2.6 NE 6.9 0.0 6.6 721.3
09:55 25.6 31.2 44.6 1019.6 4.0 NNW 7.4 NNW 0.0 6.5 733.6
10:00 25.8 31.6 44.4 1019.5 4.9 N 9.7 NNE 0.0 6.5 744.0
10:05 26.0 32.3 43.7 1019.5 5.2 NNE 9.7 N 0.0 6.4 752.6
10:10 26.6 33.1 42.1 1019.5 2.1 NNE 5.9 E 0.0 6.4 759.6
10:15 27.3 34.3 39.5 1019.5 5.8 SSW 16.7 S 0.0 6.3 773.4
10:20 27.7 34.4 33.2 1019.4 8.5 SSW 22.5 SSW 0.0 6.1 790.3
10:25 28.1 34.8 31.4 1019.4 8.9 SW 18.9 SSW 0.0 6.1 801.0
10:30 28.1 35.0 31.6 1019.5 4.9 WSW 14.8 SSW 0.0 6.0 806.0
10:35 28.4 35.5 33.4 1019.5 7.8 SW 19.6 SW 0.0 5.9 815.0
10:40 28.4 35.9 33.8 1019.5 6.4 WNW 13.9 NW 0.0 5.9 819.0
10:45 28.4 36.3 33.8 1019.5 4.6 WSW 12.5 W 0.0 5.8 821.0
10:50 28.0 36.9 36.5 1019.5 6.9 W 14.5 WNW 0.0 5.7 826.0
10:55 28.6 37.1 34.2 1019.4 9.1 SSW 19.4 SW 0.0 5.7 838.0
11:00 28.5 37.4 33.8 1019.4 5.0 WSW 15.1 SSW 0.0 4.9 839.0
11:05 28.8 37.9 35.3 1019.3 4.6 WSW 12.2 SSW 0.0 4.8 843.0
11:10 28.6 38.6 35.4 1019.3 4.7 SW 10.2 SSW 0.0 4.8 844.0
11:15 28.9 39.3 37.4 1019.2 4.6 SW 9.1 SW 0.0 4.7 845.0
11:20 29.2 39.6 38.6 1019.2 7.6 SW 16.3 SSW 0.0 4.6 848.0
11:25 29.1 39.6 38.8 1019.2 5.3 SSW 12.0 SSW 0.0 4.5 852.0
11:30 29.2 40.3 38.6 1019.1 8.1 SSW 18.7 SSW 0.0 4.5 855.0
11:35 29.1 39.8 37.7 1019.1 7.2 SSW 18.4 SW 0.0 4.4 861.0
11:40 29.0 39.5 38.5 1019.1 8.8 S 18.0 SSW 0.0 4.4 864.0
11:45 29.1 38.8 41.0 1019.1 10.8 SW 22.7 SW 0.0 4.4 865.0
11:50 29.4 38.9 40.9 1019.1 7.6 SW 17.5 SW 0.0 4.3 861.0
11:55 29.1 39.2 42.2 1019.0 3.4 S 7.3 WSW 0.0 4.3 855.0
12:00 29.5 39.9 40.7 1019.0 8.1 SW 22.2 SW 0.0 4.3 854.0
12:05 29.5 39.1 41.0 1018.9 10.4 SSW 19.6 SW 0.0 4.2 861.0
12:10 29.6 39.5 41.2 1018.9 5.3 SW 15.5 SSW 0.0 4.2 857.0
12:15 29.8 40.3 41.3 1018.8 7.4 SSW 15.5 SSW 0.0 4.2 855.0
12:20 29.7 40.5 40.4 1018.8 7.2 S 13.5 S 0.0 4.1 856.0
12:25 29.7 40.6 41.4 1018.8 10.5 S 19.2 S 0.0 4.1 854.0
12:30 29.5 40.4 41.5 1018.7 9.7 S 18.8 SSW 0.0 4.1 852.0
12:35 29.7 40.3 41.3 1018.7 9.5 S 17.4 SE 0.0 4.1 847.0
12:40 29.9 40.5 41.2 1018.7 10.5 S 25.5 SSW 0.0 4.0 840.0
12:45 30.0 39.6 40.8 1018.6 14.6 SSW 24.8 SSW 0.0 4.0 835.0
12:50 29.6 39.6 41.3 1018.6 11.3 S 23.4 SE 0.0 4.0 831.0
12:55 30.1 39.9 40.8 1018.5 9.6 S 19.4 SSE 0.0 4.0 819.0
13:00 30.1 39.9 41.0 1018.5 11.7 SSW 24.0 S 0.0 4.0 824.0
13:05 30.3 39.4 40.2 1018.4 10.2 S 22.6 SW 0.0 3.9 822.0
13:10 30.4 39.7 40.6 1018.4 11.9 SSW 20.6 SSW 0.0 3.9 815.0
13:15 30.5 39.6 40.2 1018.4 12.7 SSW 24.0 SSW 0.0 3.7 808.0
13:20 30.4 39.1 39.9 1018.4 13.4 SSW 23.6 SW 0.0 3.9 804.0
13:25 30.3 39.1 40.5 1018.3 8.5 SSW 17.6 SSE 0.0 3.8 610.7
13:30 30.4 38.7 40.5 1018.2 13.2 SSW 28.3 SSW 0.0 3.8 762.5
13:35 30.3 38.1 41.0 1018.3 10.2 SSW 21.7 SSW 0.0 3.7 799.8
13:40 30.7 38.9 41.1 1018.2 8.7 SSW 18.1 SSW 0.0 3.8 779.3
13:45 31.0 39.4 40.4 1018.1 10.9 SW 29.4 SSW 0.0 3.8 759.5
13:50 30.6 38.9 41.1 1018.1 10.6 SSW 22.4 SW 0.0 3.8 759.6
13:55 30.5 38.9 41.9 1018.1 12.9 SSW 29.3 SSW 0.0 3.8 751.9
14:00 30.6 38.3 41.3 1018.1 13.7 SSW 24.1 SW 0.0 3.8 735.8
14:05 30.4 37.8 42.4 1018.1 12.6 SW 26.6 SW 0.0 3.8 726.9
14:10 30.4 38.3 42.7 1018.1 7.8 SW 24.2 SSW 0.0 3.8 713.9
14:15 30.6 38.4 42.4 1018.1 9.7 SW 19.7 SSW 0.0 3.8 704.8
14:20 30.7 38.4 42.3 1018.0 7.8 SW 16.6 W 0.0 3.8 693.8
14:25 30.9 38.6 41.3 1018.0 10.4 SSW 20.1 SW 0.0 3.8 685.7
14:30 31.0 38.4 41.5 1018.0 12.0 SW 25.4 SSW 0.0 3.7 669.0
14:35 30.7 37.6 41.5 1018.0 11.3 SSW 23.5 SSW 0.0 3.7 659.9
14:40 30.6 37.4 41.9 1018.0 13.6 SSW 23.3 SSW 0.0 3.7 653.5
14:45 30.5 37.2 43.4 1017.9 14.2 SSW 28.4 SSW 0.0 3.7 640.8
14:50 30.7 37.1 43.9 1017.9 13.6 SSW 27.9 SSW 0.0 3.7 598.9
14:55 30.5 36.7 45.8 1017.8 16.1 SSW 31.6 SSW 0.0 3.8 602.1
15:00 29.9 35.3 48.2 1017.9 18.4 SSW 32.0 SSW 0.0 3.8 588.4
15:05 29.8 34.8 46.7 1017.9 15.8 SSW 26.8 SSW 0.0 3.8 573.4
15:10 30.1 35.0 46.8 1017.9 13.8 SSW 25.6 SSW 0.0 3.8 565.2
15:15 29.8 34.8 49.2 1017.9 14.0 SW 28.9 SSW 0.0 3.9 550.6
15:20 29.6 34.3 49.5 1017.9 18.5 SSW 37.2 SSW 0.0 3.9 536.3
15:25 29.2 33.6 52.6 1018.0 21.2 SSW 35.5 SW 0.0 3.9 523.5
15:30 28.9 32.9 53.1 1018.0 20.6 SSW 36.1 SW 0.0 4.0 510.8
15:35 28.6 32.5 53.9 1018.0 21.5 SSW 36.0 SW 0.0 4.0 493.6
15:40 28.5 32.3 55.3 1018.0 17.5 SSW 33.1 SSW 0.0 4.0 474.6
15:45 28.3 31.9 55.6 1018.0 19.9 SSW 34.3 SSW 0.0 4.1 439.8
15:50 28.4 31.9 56.2 1018.0 17.5 SSW 30.9 SSW 0.0 4.1 441.1
15:55 28.2 31.8 56.5 1018.0 17.0 SSW 31.6 SSW 0.0 4.2 391.0
16:00 28.2 31.8 57.3 1018.0 17.7 SSW 37.1 SW 0.0 4.2 408.7
16:05 27.6 30.9 58.8 1017.9 24.9 SSW 38.2 SSW 0.0 4.2 397.4
16:10 27.5 30.7 59.3 1017.9 20.8 SSW 35.4 S 0.0 4.3 380.7
16:15 27.6 31.1 59.3 1018.0 12.7 SSW 23.9 SW 0.0 4.3 363.3
16:20 27.9 31.5 59.2 1018.0 14.6 SSW 28.5 SSW 0.0 4.3 347.7
16:25 27.6 31.2 59.8 1018.0 15.3 SSW 31.3 SW 0.0 4.4 333.5
16:30 27.5 30.9 60.4 1018.1 13.4 SSW 26.0 SSW 0.0 4.5 319.8
16:35 27.3 30.5 60.8 1018.1 13.8 SSW 29.5 SSW 0.0 4.5 305.3
16:40 27.2 30.3 61.0 1018.2 13.0 S 23.2 SW 0.0 4.5 292.5
16:45 26.8 30.0 62.0 1018.3 16.3 SSW 29.2 SSE 0.0 4.6 281.9
16:50 26.6 29.2 63.0 1018.3 12.4 SSW 22.4 SW 0.0 4.6 265.3
16:55 26.4 28.6 63.5 1018.3 16.0 SSW 26.3 SSW 0.0 4.6 251.9
17:00 26.2 27.5 63.9 1018.3 16.9 SSW 29.3 SW 0.0 4.7 237.4
17:05 26.2 26.9 63.7 1018.2 15.8 SSW 28.7 SSW 0.0 4.7 224.1
17:10 26.0 27.0 63.9 1018.3 19.5 SSW 31.0 SW 0.0 4.8 223.5
17:15 25.9 27.3 64.1 1018.4 13.7 SSW 24.6 SW 0.0 4.8 212.1
17:20 25.8 27.5 64.4 1018.4 12.0 SSW 24.2 S 0.0 4.9 212.9
17:25 25.9 27.2 63.8 1018.4 12.0 SSW 23.6 SSW 0.0 4.9 203.3
17:30 25.9 26.6 63.8 1018.4 9.7 SSW 18.7 SW 0.0 4.9 174.8
17:35 25.6 26.2 64.3 1018.4 14.5 SSW 22.7 SSW 0.0 4.9 144.2
17:40 25.3 25.9 64.9 1018.4 12.3 SSW 21.1 SSW 0.0 4.9 123.7
17:45 25.2 25.6 64.8 1018.4 9.3 SSW 17.4 SSW 0.0 5.6 107.1
17:50 25.0 25.3 65.1 1018.4 10.9 SSW 20.6 SSW 0.0 5.7 86.5
17:55 24.9 24.9 65.1 1018.4 8.8 SSW 18.8 SSW 0.0 5.7 46.4
18:00 24.8 24.5 65.5 1018.5 6.9 SSW 15.2 SSW 0.0 5.7 40.5
18:05 24.7 24.2 65.6 1018.5 4.1 SSW 12.1 SW 0.0 5.7 35.2
18:10 24.5 24.0 65.5 1018.7 3.8 WNW 7.1 W 0.0 5.8 24.8
18:15 24.4 23.8 65.8 1018.8 3.8 WNW 9.9 WNW 0.0 5.8 11.1
18:20 24.3 23.7 65.9 1018.8 3.6 WNW 9.2 WNW 0.0 5.8 5.3
18:25 24.2 23.5 65.8 1018.9 5.9 NNW 15.6 NNW 0.0 5.8 3.1
18:30 24.2 23.4 65.4 1018.9 3.6 NW 13.7 NNW 0.0 5.8 1.6
18:35 24.1 23.2 65.7 1018.9 3.8 NNW 7.1 NW 0.0 5.8 0.8
18:40 24.0 23.0 65.9 1018.9 5.7 N 13.4 N 0.0 5.9 0.1
18:45 23.8 22.8 66.2 1018.9 2.1 NNW 7.2 SSW 0.0 5.9 0.0
18:50 23.6 22.4 65.7 1019.0 7.6 SSW 13.7 SSW 0.0 5.9 0.0
18:55 23.4 22.2 65.7 1019.1 4.0 WSW 10.0 SW 0.0 5.9 0.0
19:00 23.2 21.7 66.3 1019.1 2.4 WNW 5.1 WNW 0.0 5.9 0.0
19:05 23.0 21.3 66.8 1019.2 3.4 NW 5.8 NW 0.0 5.9 0.0
19:10 22.9 20.9 67.5 1019.2 5.1 NNW 7.8 NNW 0.0 5.9 0.0
Màxima 31.0 40.6 84.0 1019.7 24.9 SSW 38.2 SSW 0.0 8.0 865.0
Mínima 13.8 10.0 31.4 1017.8 3.7
Total 0.0